Time;durP1;ratioP1;P1;durP2;ratioP2;P2;SDS_P1;SDS_P2;PMS_P1;PMS_P2;Temp;Humidity;BMP_temperature;BMP_pressure;BME280_temperature;BME280_humidity;BME280_pressure;Samples;Min_cycle;Max_cycle;Signal;HPM_P1;HPM_P2
2021/08/25 00:02:15;;;;;;;4.18;2.58;;;24.20;54.10;;;;;;6242126;28;20030;-68
2021/08/25 00:05:16;;;;;;;4.93;2.70;;;24.20;54.20;;;;;;6242266;28;20204;-67
2021/08/25 00:08:16;;;;;;;5.47;2.90;;;24.20;54.20;;;;;;6242932;28;20026;-68
2021/08/25 00:11:17;;;;;;;5.15;2.63;;;24.20;54.20;;;;;;6242619;28;20476;-68
2021/08/25 00:14:18;;;;;;;3.92;2.45;;;24.20;54.10;;;;;;6240933;28;20060;-68
2021/08/25 00:17:19;;;;;;;4.57;2.58;;;24.30;54.30;;;;;;6241723;28;20140;-68
2021/08/25 00:20:19;;;;;;;5.07;2.75;;;24.20;54.20;;;;;;6242592;28;20399;-67
2021/08/25 00:23:20;;;;;;;3.78;2.45;;;24.20;54.20;;;;;;6242309;28;20029;-67
2021/08/25 00:26:20;;;;;;;4.18;2.40;;;24.20;54.20;;;;;;6242614;28;20116;-68
2021/08/25 00:29:21;;;;;;;4.10;2.50;;;24.20;54.20;;;;;;6242724;28;20082;-68
2021/08/25 00:32:22;;;;;;;3.55;2.42;;;24.20;54.20;;;;;;6241247;28;20175;-68
2021/08/25 00:35:23;;;;;;;4.00;2.50;;;24.20;54.20;;;;;;6240870;28;20033;-68
2021/08/25 00:38:23;;;;;;;3.75;2.45;;;24.20;54.20;;;;;;6240473;28;20450;-68
2021/08/25 00:41:24;;;;;;;5.45;2.30;;;24.20;54.20;;;;;;6241864;28;20029;-68
2021/08/25 00:44:24;;;;;;;3.38;1.90;;;24.20;54.20;;;;;;6240810;28;20032;-68
2021/08/25 00:47:25;;;;;;;3.97;2.28;;;24.20;54.30;;;;;;6241537;28;20021;-68
2021/08/25 00:50:25;;;;;;;3.45;2.30;;;24.20;54.30;;;;;;6242212;28;20022;-68
2021/08/25 00:53:26;;;;;;;3.00;2.10;;;24.20;54.30;;;;;;6241407;28;20025;-68
2021/08/25 00:56:27;;;;;;;3.20;2.15;;;24.20;54.30;;;;;;6241388;28;20041;-68
2021/08/25 00:59:29;;;;;;;3.90;2.20;;;24.20;54.20;;;;;;6240757;28;20017;-68
2021/08/25 01:02:35;;;;;;;2.83;1.65;;;24.20;54.30;;;;;;6239687;28;20029;-68
2021/08/25 01:05:38;;;;;;;4.78;2.53;;;24.20;54.30;;;;;;6239754;28;20026;-68
2021/08/25 01:08:39;;;;;;;3.72;2.15;;;24.20;54.30;;;;;;6240987;28;20040;-68
2021/08/25 01:11:44;;;;;;;4.30;2.22;;;24.20;54.30;;;;;;6241175;28;20029;-68
2021/08/25 01:14:44;;;;;;;3.42;2.10;;;24.20;54.30;;;;;;6226434;28;20060;-68
2021/08/25 01:17:46;;;;;;;3.88;2.33;;;24.20;54.30;;;;;;6223711;28;20439;-67
2021/08/25 01:20:48;;;;;;;3.88;1.92;;;24.20;54.30;;;;;;6239684;28;20025;-67
2021/08/25 01:23:51;;;;;;;3.08;1.98;;;24.20;54.30;;;;;;6240618;28;20418;-68
2021/08/25 01:26:53;;;;;;;3.42;1.92;;;24.20;54.30;;;;;;6239466;28;20490;-68
2021/08/25 01:29:58;;;;;;;2.80;1.80;;;24.20;54.40;;;;;;6241047;28;20013;-67
2021/08/25 01:33:00;;;;;;;5.57;1.90;;;24.20;54.30;;;;;;6240684;28;20636;-68
2021/08/25 01:36:00;;;;;;;2.08;1.65;;;24.20;54.30;;;;;;6239540;28;20552;-68
2021/08/25 01:39:01;;;;;;;2.33;1.65;;;24.20;54.30;;;;;;6239258;28;20331;-68
2021/08/25 01:42:02;;;;;;;2.88;1.70;;;24.20;54.40;;;;;;6240442;28;20084;-68
2021/08/25 01:45:04;;;;;;;2.58;1.70;;;24.20;54.30;;;;;;6238939;28;20021;-68
2021/08/25 01:48:05;;;;;;;1.92;1.45;;;24.20;54.30;;;;;;6239126;28;20112;-68
2021/08/25 01:51:05;;;;;;;3.58;2.10;;;24.20;54.40;;;;;;6241351;28;20399;-68
2021/08/25 01:54:07;;;;;;;3.67;2.00;;;24.20;54.30;;;;;;6242165;28;20026;-68
2021/08/25 01:57:08;;;;;;;2.53;1.63;;;24.20;54.30;;;;;;6239679;28;20639;-68
2021/08/25 02:00:09;;;;;;;2.47;1.63;;;24.20;54.20;;;;;;6240551;28;20638;-67
2021/08/25 02:03:10;;;;;;;1.98;1.33;;;24.20;54.30;;;;;;6240494;28;20022;-68
2021/08/25 02:06:11;;;;;;;2.20;1.42;;;24.20;54.40;;;;;;6239044;28;20469;-68
2021/08/25 02:09:11;;;;;;;3.42;1.70;;;24.20;55.10;;;;;;6240522;28;20057;-67
2021/08/25 02:12:12;;;;;;;2.25;1.58;;;24.20;54.40;;;;;;6238633;28;20033;-68
2021/08/25 02:15:12;;;;;;;3.78;1.63;;;24.20;54.40;;;;;;6223203;28;20033;-67
2021/08/25 02:18:13;;;;;;;2.47;1.65;;;24.20;54.40;;;;;;6232580;28;20038;-68
2021/08/25 02:21:13;;;;;;;2.58;1.48;;;24.20;54.40;;;;;;6240119;28;20053;-69
2021/08/25 02:24:14;;;;;;;3.42;1.80;;;24.20;54.30;;;;;;6240095;28;20587;-68
2021/08/25 02:27:14;;;;;;;2.15;1.45;;;24.20;54.40;;;;;;6238800;28;20097;-68
2021/08/25 02:30:15;;;;;;;1.60;1.30;;;24.20;54.20;;;;;;6230301;28;20034;-69
2021/08/25 02:33:15;;;;;;;2.90;1.50;;;24.20;54.40;;;;;;6214588;28;20168;-68
2021/08/25 02:36:18;;;;;;;2.17;1.48;;;24.20;54.40;;;;;;6240042;28;20037;-66
2021/08/25 02:39:18;;;;;;;2.95;1.83;;;24.20;54.40;;;;;;6240053;28;20111;-68
2021/08/25 02:42:19;;;;;;;1.70;1.30;;;24.20;54.40;;;;;;6238777;28;20069;-68
2021/08/25 02:45:19;;;;;;;2.28;1.48;;;24.20;54.30;;;;;;6230834;28;20030;-67
2021/08/25 02:48:20;;;;;;;1.90;1.48;;;24.20;54.30;;;;;;6229977;28;20018;-67
2021/08/25 02:51:21;;;;;;;2.33;1.38;;;24.20;54.20;;;;;;6239620;28;20029;-68
2021/08/25 02:54:21;;;;;;;1.67;1.40;;;24.20;54.40;;;;;;6240543;28;20030;-68
2021/08/25 02:57:22;;;;;;;1.95;1.58;;;24.20;54.20;;;;;;6243221;28;20144;-68
2021/08/25 03:00:22;;;;;;;1.85;1.40;;;24.20;54.10;;;;;;6243629;28;20084;-68
2021/08/25 03:03:23;;;;;;;2.17;1.52;;;24.20;54.20;;;;;;6235281;28;20567;-68
2021/08/25 03:06:23;;;;;;;2.33;1.48;;;24.20;54.30;;;;;;6244259;28;20022;-67
2021/08/25 03:09:24;;;;;;;1.70;1.40;;;24.20;54.40;;;;;;6242738;28;20022;-69
2021/08/25 03:12:24;;;;;;;2.55;1.40;;;24.20;54.40;;;;;;6243810;28;20025;-68
2021/08/25 03:15:25;;;;;;;1.92;1.30;;;24.20;54.30;;;;;;6232700;28;20032;-68
2021/08/25 03:18:25;;;;;;;2.15;1.40;;;24.20;54.10;;;;;;6243984;28;20296;-68
2021/08/25 03:21:26;;;;;;;2.55;1.55;;;24.20;54.40;;;;;;6243169;28;20397;-68
2021/08/25 03:24:27;;;;;;;1.48;1.23;;;24.20;54.20;;;;;;6233900;28;20030;-68
2021/08/25 03:27:27;;;;;;;2.83;1.55;;;24.20;54.10;;;;;;6242000;28;20033;-69
2021/08/25 03:30:28;;;;;;;1.90;1.40;;;24.20;54.20;;;;;;6243639;28;20061;-69
2021/08/25 03:33:29;;;;;;;1.85;1.20;;;24.20;54.40;;;;;;6242144;28;20426;-68
2021/08/25 03:36:29;;;;;;;1.35;1.10;;;24.20;54.40;;;;;;6243454;28;20040;-68
2021/08/25 03:39:31;;;;;;;2.47;1.50;;;24.20;54.10;;;;;;6243298;28;20045;-68
2021/08/25 03:42:32;;;;;;;2.58;1.60;;;24.20;54.20;;;;;;6241808;28;20088;-68
2021/08/25 03:45:32;;;;;;;1.60;1.20;;;24.20;54.00;;;;;;6242166;28;20479;-68
2021/08/25 03:48:33;;;;;;;1.73;1.33;;;24.20;54.20;;;;;;6242913;28;20495;-68
2021/08/25 03:51:34;;;;;;;2.88;1.40;;;24.20;54.30;;;;;;6241670;28;20497;-68
2021/08/25 03:54:34;;;;;;;1.52;1.15;;;24.20;54.10;;;;;;6243248;28;20025;-68
2021/08/25 03:57:35;;;;;;;1.85;1.27;;;24.20;54.10;;;;;;6243412;28;20496;-68
2021/08/25 04:00:39;;;;;;;2.95;1.60;;;24.20;54.40;;;;;;6241203;28;20029;-68
2021/08/25 04:03:39;;;;;;;1.63;1.30;;;24.20;54.00;;;;;;6241730;28;20477;-68
2021/08/25 04:06:40;;;;;;;2.05;1.40;;;24.20;54.10;;;;;;6241477;28;20033;-69
2021/08/25 04:09:40;;;;;;;1.33;1.00;;;24.20;54.10;;;;;;6242447;28;20103;-68
2021/08/25 04:12:41;;;;;;;2.47;1.33;;;24.20;54.30;;;;;;6240952;28;20034;-69
2021/08/25 04:15:42;;;;;;;1.83;1.15;;;24.20;54.10;;;;;;6225443;28;20036;-67
2021/08/25 04:18:42;;;;;;;1.90;1.23;;;24.20;54.10;;;;;;6241010;28;20461;-68
2021/08/25 04:21:42;;;;;;;2.53;1.20;;;24.20;54.10;;;;;;6241989;28;20025;-68
2021/08/25 04:24:43;;;;;;;1.45;1.13;;;24.20;54.00;;;;;;6241201;28;20387;-68
2021/08/25 04:27:44;;;;;;;1.65;1.02;;;24.20;54.10;;;;;;6242133;28;20034;-68
2021/08/25 04:30:44;;;;;;;1.35;0.95;;;24.20;54.10;;;;;;6241231;28;20021;-68
2021/08/25 04:33:45;;;;;;;1.13;0.95;;;24.20;54.00;;;;;;6241918;28;20022;-67
2021/08/25 04:36:45;;;;;;;2.20;1.33;;;24.20;54.10;;;;;;6241615;28;20363;-67
2021/08/25 04:39:46;;;;;;;1.55;1.08;;;24.20;54.10;;;;;;6242367;28;20027;-67
2021/08/25 04:42:46;;;;;;;1.77;1.40;;;24.20;54.10;;;;;;6241822;28;20033;-67
2021/08/25 04:45:47;;;;;;;1.10;0.93;;;24.20;54.10;;;;;;6242097;28;20104;-67
2021/08/25 04:48:47;;;;;;;1.55;1.15;;;24.20;54.10;;;;;;6241431;28;20022;-67
2021/08/25 04:51:48;;;;;;;1.58;1.08;;;24.20;54.10;;;;;;6240995;28;20103;-67
2021/08/25 04:54:48;;;;;;;1.75;1.40;;;24.20;54.10;;;;;;6232093;28;20045;-67
2021/08/25 04:57:49;;;;;;;2.05;1.30;;;24.20;54.10;;;;;;6227503;28;20083;-67
2021/08/25 05:00:51;;;;;;;1.35;1.08;;;24.20;54.10;;;;;;6238520;28;20033;-67
2021/08/25 05:03:52;;;;;;;1.30;1.02;;;24.20;54.10;;;;;;6236862;28;20071;-67
2021/08/25 05:06:53;;;;;;;1.75;1.08;;;24.20;54.10;;;;;;6241408;28;20065;-67
2021/08/25 05:09:54;;;;;;;1.35;1.08;;;24.20;54.20;;;;;;6239653;28;20063;-67
2021/08/25 05:12:54;;;;;;;1.92;1.27;;;24.20;54.10;;;;;;6239560;28;20025;-67
2021/08/25 05:15:55;;;;;;;1.08;0.90;;;24.20;54.20;;;;;;6216759;28;20018;-67
2021/08/25 05:18:55;;;;;;;1.05;0.95;;;24.20;54.20;;;;;;6233200;28;20041;-67
2021/08/25 05:21:56;;;;;;;1.13;1.00;;;24.20;54.10;;;;;;6241433;28;20029;-67
2021/08/25 05:24:56;;;;;;;1.27;1.00;;;24.20;54.20;;;;;;6241700;28;20500;-67
2021/08/25 05:27:57;;;;;;;1.30;1.00;;;24.20;54.20;;;;;;6240797;28;20467;-67
2021/08/25 05:30:59;;;;;;;1.33;1.00;;;24.20;54.20;;;;;;6239403;28;20040;-67
2021/08/25 05:33:59;;;;;;;1.70;1.10;;;24.20;54.20;;;;;;6240882;28;20091;-67
2021/08/25 05:37:00;;;;;;;1.55;1.02;;;24.20;54.90;;;;;;6240931;28;20104;-67
2021/08/25 05:40:01;;;;;;;1.42;1.02;;;24.20;54.30;;;;;;6240481;28;20029;-67
2021/08/25 05:43:01;;;;;;;1.13;0.93;;;24.20;54.20;;;;;;6240392;28;20367;-67
2021/08/25 05:46:02;;;;;;;1.83;1.10;;;24.20;54.20;;;;;;6239348;28;20386;-67
2021/08/25 05:49:03;;;;;;;1.77;1.30;;;24.20;54.20;;;;;;6240490;28;20025;-67
2021/08/25 05:52:04;;;;;;;1.98;1.20;;;24.20;54.10;;;;;;6240254;28;20037;-67
2021/08/25 05:55:05;;;;;;;1.60;1.20;;;24.20;54.20;;;;;;6224762;28;20022;-67
2021/08/25 05:58:06;;;;;;;8.18;1.58;;;24.20;53.80;;;;;;6218002;28;20050;-66
2021/08/25 06:01:06;;;;;;;2.15;1.42;;;24.20;53.20;;;;;;6235848;28;20091;-67
2021/08/25 06:04:07;;;;;;;7.03;2.53;;;24.20;52.90;;;;;;6239120;28;20022;-67
2021/08/25 06:07:09;;;;;;;12.27;3.25;;;24.10;52.20;;;;;;6241394;28;20059;-67
2021/08/25 06:10:10;;;;;;;5.28;2.38;;;24.10;51.60;;;;;;6236512;28;20056;-67
2021/08/25 06:13:10;;;;;;;7.00;2.55;;;24.10;51.30;;;;;;6241969;28;20105;-67
2021/08/25 06:16:12;;;;;;;7.95;2.65;;;24.10;50.80;;;;;;6232534;28;20380;-66
2021/08/25 06:19:12;;;;;;;4.40;2.70;;;24.10;50.30;;;;;;6254257;28;20033;-66
2021/08/25 06:22:13;;;;;;;8.80;3.72;;;24.10;51.60;;;;;;6237855;28;20030;-67
2021/08/25 06:25:13;;;;;;;4.45;2.90;;;24.10;51.10;;;;;;6240472;28;20037;-67
2021/08/25 06:28:14;;;;;;;7.00;2.67;;;24.10;50.90;;;;;;6242166;28;20025;-66
2021/08/25 06:31:15;;;;;;;8.88;3.50;;;24.00;51.70;;;;;;6245252;28;20057;-66
2021/08/25 06:34:15;;;;;;;11.57;4.00;;;24.00;50.80;;;;;;6229806;28;20033;-66
2021/08/25 06:37:16;;;;;;;6.38;3.78;;;24.10;50.10;;;;;;6246580;28;20033;-66
2021/08/25 06:40:17;;;;;;;10.15;3.40;;;24.10;50.50;;;;;;6246556;28;20431;-66
2021/08/25 06:43:17;;;;;;;11.40;3.97;;;24.00;50.20;;;;;;6242521;28;20827;-66
2021/08/25 06:46:18;;;;;;;7.95;3.83;;;24.00;50.40;;;;;;6242950;28;20104;-67
2021/08/25 06:49:19;;;;;;;9.65;3.75;;;24.00;50.90;;;;;;6246419;28;20241;-66
2021/08/25 06:52:19;;;;;;;8.50;4.07;;;24.00;50.40;;;;;;6243389;28;20037;-67
2021/08/25 06:55:20;;;;;;;9.38;3.92;;;24.00;50.90;;;;;;6246082;28;20028;-66
2021/08/25 06:58:21;;;;;;;7.47;4.20;;;24.00;50.80;;;;;;6246328;28;20075;-66
2021/08/25 07:01:21;;;;;;;7.95;3.88;;;24.00;50.40;;;;;;6244945;28;20029;-66
2021/08/25 07:04:22;;;;;;;9.45;3.78;;;24.00;50.90;;;;;;6244773;28;20021;-69
2021/08/25 07:07:23;;;;;;;8.52;3.67;;;24.00;50.00;;;;;;6246451;28;20068;-67
2021/08/25 07:10:24;;;;;;;13.48;4.50;;;24.00;50.30;;;;;;6242169;28;20504;-67
2021/08/25 07:13:24;;;;;;;25.73;5.07;;;24.00;49.60;;;;;;6243316;28;20029;-67
2021/08/25 07:16:25;;;;;;;18.60;5.15;;;24.00;51.40;;;;;;6235309;28;20439;-67
2021/08/25 07:19:26;;;;;;;14.50;4.25;;;24.00;51.40;;;;;;6228335;28;20516;-71
2021/08/25 07:22:26;;;;;;;16.23;4.40;;;24.00;51.70;;;;;;6229695;28;20502;-71
2021/08/25 07:25:27;;;;;;;14.00;4.40;;;24.10;51.30;;;;;;6244053;28;20022;-70
2021/08/25 07:28:27;;;;;;;11.52;4.35;;;24.10;51.10;;;;;;6238482;28;20025;-71
2021/08/25 07:31:28;;;;;;;19.70;4.30;;;24.10;50.80;;;;;;6244745;28;20033;-71
2021/08/25 07:34:29;;;;;;;11.70;4.03;;;24.10;50.80;;;;;;6244236;28;20037;-70
2021/08/25 07:37:29;;;;;;;11.32;3.95;;;24.20;50.70;;;;;;6246431;28;20021;-72
2021/08/25 07:40:30;;;;;;;11.73;4.35;;;24.20;50.90;;;;;;6246308;28;20052;-72
2021/08/25 07:43:31;;;;;;;17.92;4.93;;;24.20;50.80;;;;;;6237053;28;20033;-71
2021/08/25 07:46:32;;;;;;;13.55;4.18;;;24.10;50.70;;;;;;6232555;28;20026;-71
2021/08/25 07:49:33;;;;;;;17.77;4.32;;;24.10;50.60;;;;;;6244875;28;20312;-72
2021/08/25 07:52:33;;;;;;;9.68;4.30;;;24.10;50.60;;;;;;6245939;28;20033;-72
2021/08/25 07:55:34;;;;;;;6.55;3.72;;;24.10;50.80;;;;;;6245657;28;20600;-71
2021/08/25 07:58:34;;;;;;;10.93;3.47;;;24.10;50.80;;;;;;6244946;28;20033;-71
2021/08/25 08:01:36;;;;;;;9.35;4.43;;;24.10;50.60;;;;;;6236464;28;20029;-71
2021/08/25 08:04:36;;;;;;;6.82;3.58;;;24.10;50.70;;;;;;6247437;28;20053;-72
2021/08/25 08:07:37;;;;;;;9.32;4.22;;;24.10;50.70;;;;;;6244753;28;20024;-72
2021/08/25 08:10:38;;;;;;;6.57;3.70;;;24.10;50.90;;;;;;6245761;28;20387;-72
2021/08/25 08:13:39;;;;;;;11.77;3.47;;;24.10;50.90;;;;;;6236187;28;20026;-72
2021/08/25 08:16:43;;;;;;;7.72;3.55;;;24.10;50.90;;;;;;6226834;28;20103;-72
2021/08/25 08:19:44;;;;;;;7.85;3.72;;;24.10;50.90;;;;;;6244261;28;20035;-72
2021/08/25 08:22:45;;;;;;;10.25;3.63;;;24.10;51.00;;;;;;6244176;28;20041;-72
2021/08/25 08:25:45;;;;;;;7.85;3.50;;;24.10;50.90;;;;;;6243796;28;20036;-71
2021/08/25 08:28:46;;;;;;;8.70;3.20;;;24.10;50.90;;;;;;6245203;28;20032;-72
2021/08/25 08:31:47;;;;;;;5.88;2.80;;;24.10;51.10;;;;;;6243732;28;20056;-72
2021/08/25 08:34:48;;;;;;;6.35;3.22;;;24.10;51.00;;;;;;6244032;28;20862;-72
2021/08/25 08:37:49;;;;;;;7.35;3.10;;;24.10;51.00;;;;;;6243376;28;20041;-72
2021/08/25 08:40:49;;;;;;;7.28;2.97;;;24.10;51.10;;;;;;6243712;28;20029;-72
2021/08/25 08:43:52;;;;;;;11.10;3.63;;;24.10;51.30;;;;;;6244509;28;20792;-72
2021/08/25 08:46:53;;;;;;;8.63;3.28;;;24.10;51.20;;;;;;6244880;28;20026;-72
2021/08/25 08:49:55;;;;;;;8.50;3.22;;;24.10;51.30;;;;;;6243610;28;20044;-72
2021/08/25 08:52:56;;;;;;;7.43;2.80;;;24.10;51.30;;;;;;6242727;28;20098;-71
2021/08/25 08:55:57;;;;;;;6.40;2.85;;;24.10;51.40;;;;;;6244736;28;20402;-73
2021/08/25 08:58:58;;;;;;;5.60;3.13;;;24.10;51.40;;;;;;6243594;28;20151;-71
2021/08/25 09:01:59;;;;;;;5.72;2.88;;;24.10;51.40;;;;;;6242964;28;20030;-72
2021/08/25 09:04:59;;;;;;;5.45;3.00;;;24.10;51.40;;;;;;6243113;28;20080;-72
2021/08/25 09:08:07;;;;;;;4.38;2.90;;;24.10;51.40;;;;;;6244223;28;20093;-72
2021/08/25 09:11:16;;;;;;;4.88;2.53;;;24.10;51.50;;;;;;6242999;28;20479;-72
2021/08/25 09:14:17;;;;;;;5.05;3.05;;;24.10;51.60;;;;;;6234434;28;20030;-72
2021/08/25 09:17:31;;;;;;;4.97;2.90;;;24.10;51.50;;;;;;6240679;28;20025;-70
2021/08/25 09:20:35;;;;;;;5.35;2.58;;;24.10;51.60;;;;;;6243942;28;20060;-72
2021/08/25 09:23:35;;;;;;;5.63;2.65;;;24.10;51.60;;;;;;6243712;28;20087;-72
2021/08/25 09:26:38;;;;;;;4.57;2.70;;;24.10;51.60;;;;;;6244349;28;20033;-72
2021/08/25 09:29:41;;;;;;;5.05;2.70;;;24.10;51.60;;;;;;6243640;28;20427;-72
2021/08/25 09:32:41;;;;;;;7.20;3.25;;;24.10;51.60;;;;;;6242910;28;20478;-73
2021/08/25 09:35:43;;;;;;;4.43;2.67;;;24.10;51.70;;;;;;6242928;28;20075;-72
2021/08/25 09:38:55;;;;;;;3.58;2.22;;;24.10;51.70;;;;;;6242296;28;20022;-72
2021/08/25 09:41:57;;;;;;;3.67;2.50;;;24.10;51.70;;;;;;6243166;28;20434;-72
2021/08/25 09:45:06;;;;;;;4.57;2.60;;;24.10;51.80;;;;;;6242747;28;20534;-71
2021/08/25 09:48:06;;;;;;;3.20;2.30;;;24.10;51.90;;;;;;6242716;28;20028;-72
2021/08/25 09:51:08;;;;;;;4.47;2.20;;;24.10;52.00;;;;;;6243614;28;20069;-72
2021/08/25 09:54:15;;;;;;;2.97;2.28;;;24.10;51.90;;;;;;6243618;28;20021;-71
2021/08/25 09:57:43;;;;;;;3.58;2.30;;;24.10;51.90;;;;;;6242091;28;20091;-72
2021/08/25 10:00:44;;;;;;;3.50;2.15;;;24.10;51.90;;;;;;6243389;28;20021;-72
2021/08/25 10:03:45;;;;;;;3.28;2.08;;;24.10;52.00;;;;;;6246614;28;20060;-72
2021/08/25 10:06:50;;;;;;;3.28;2.05;;;24.10;51.90;;;;;;6251833;28;20021;-71
2021/08/25 10:09:50;;;;;;;6.72;2.45;;;24.10;52.00;;;;;;6251082;28;20029;-71
2021/08/25 10:12:52;;;;;;;3.63;2.35;;;24.10;52.00;;;;;;6249986;28;20517;-71
2021/08/25 10:15:52;;;;;;;3.75;2.28;;;24.10;52.00;;;;;;6249028;28;20075;-70
2021/08/25 10:18:53;;;;;;;3.47;2.05;;;24.10;52.00;;;;;;6251792;28;20116;-72
2021/08/25 10:22:03;;;;;;;2.70;2.05;;;24.10;52.00;;;;;;6251153;28;20540;-72
2021/08/25 10:25:07;;;;;;;2.83;1.92;;;24.10;52.10;;;;;;6251434;28;20048;-72
2021/08/25 10:28:09;;;;;;;4.32;2.25;;;24.10;52.10;;;;;;6251908;28;20144;-72
2021/08/25 10:31:09;;;;;;;2.47;1.85;;;24.10;52.10;;;;;;6250004;28;20037;-72
2021/08/25 10:34:27;;;;;;;2.70;1.90;;;24.10;52.20;;;;;;6251310;28;20033;-72
2021/08/25 10:37:29;;;;;;;2.85;1.92;;;24.10;52.30;;;;;;6249972;28;20043;-72
2021/08/25 10:40:32;;;;;;;3.20;2.10;;;24.10;52.30;;;;;;6251100;28;20036;-72
2021/08/25 10:43:43;;;;;;;3.22;1.98;;;24.10;52.30;;;;;;6251382;28;20022;-72
2021/08/25 10:46:48;;;;;;;2.75;1.92;;;24.10;52.30;;;;;;6250761;28;20433;-72
2021/08/25 10:49:49;;;;;;;3.83;2.15;;;24.10;52.30;;;;;;6249571;28;20033;-72
2021/08/25 10:52:49;;;;;;;2.72;1.77;;;24.10;52.30;;;;;;6251579;28;20033;-72
2021/08/25 10:55:50;;;;;;;3.55;2.47;;;24.10;52.20;;;;;;6249173;28;20027;-68
2021/08/25 10:58:55;;;;;;;2.97;1.80;;;24.10;52.30;;;;;;6250359;28;20493;-72
2021/08/25 11:01:59;;;;;;;2.20;1.80;;;24.10;52.20;;;;;;6250739;28;20075;-72
2021/08/25 11:05:00;;;;;;;2.78;1.98;;;24.10;52.30;;;;;;6249108;28;20025;-71
2021/08/25 11:08:00;;;;;;;2.65;1.92;;;24.10;52.30;;;;;;6249772;28;20049;-73
2021/08/25 11:11:13;;;;;;;2.88;1.95;;;24.10;52.30;;;;;;6249872;28;20120;-72
2021/08/25 11:14:19;;;;;;;2.30;1.95;;;24.10;52.30;;;;;;6241095;28;20483;-72
2021/08/25 11:17:20;;;;;;;2.55;1.90;;;24.10;52.30;;;;;;6232513;28;20022;-72
2021/08/25 11:20:20;;;;;;;2.78;1.80;;;24.10;52.40;;;;;;6224010;28;20445;-71
2021/08/25 11:23:21;;;;;;;3.50;1.80;;;24.10;52.30;;;;;;6246716;28;20032;-72
2021/08/25 11:26:22;;;;;;;2.67;1.83;;;24.10;52.40;;;;;;6246898;28;20030;-72
2021/08/25 11:29:23;;;;;;;2.20;1.63;;;24.10;52.40;;;;;;6245383;28;20021;-72
2021/08/25 11:32:24;;;;;;;1.90;1.58;;;24.10;52.40;;;;;;6246833;28;20033;-72
2021/08/25 11:35:35;;;;;;;3.33;1.75;;;24.10;52.40;;;;;;6245370;28;20084;-72
2021/08/25 11:38:36;;;;;;;2.60;1.67;;;24.10;52.40;;;;;;6246714;28;20037;-71
2021/08/25 11:41:47;;;;;;;3.50;1.90;;;24.10;52.40;;;;;;6245031;28;20030;-72
2021/08/25 11:44:48;;;;;;;3.10;1.80;;;24.10;52.40;;;;;;6246175;28;20534;-72
2021/08/25 11:47:53;;;;;;;3.97;2.10;;;24.10;52.40;;;;;;6245225;28;20021;-72
2021/08/25 11:50:55;;;;;;;2.08;1.70;;;24.10;52.50;;;;;;6246140;28;20064;-71
2021/08/25 11:53:55;;;;;;;2.50;1.67;;;24.10;53.20;;;;;;6245186;28;20017;-71
2021/08/25 11:56:56;;;;;;;2.60;1.80;;;24.10;52.50;;;;;;6246361;28;20068;-72
2021/08/25 11:59:58;;;;;;;2.35;1.80;;;24.10;52.40;;;;;;6244656;28;20025;-72
2021/08/25 12:03:00;;;;;;;2.88;1.50;;;24.10;52.50;;;;;;6246018;28;20072;-72
2021/08/25 12:06:01;;;;;;;3.80;1.90;;;24.10;52.60;;;;;;6244734;28;20079;-72
2021/08/25 12:09:01;;;;;;;2.75;1.77;;;24.10;52.60;;;;;;6246013;28;20030;-73
2021/08/25 12:12:02;;;;;;;3.40;1.90;;;24.10;52.80;;;;;;6245395;28;20263;-72
2021/08/25 12:15:03;;;;;;;1.90;1.30;;;24.10;52.80;;;;;;6230582;28;20040;-72
2021/08/25 12:18:04;;;;;;;1.98;1.50;;;24.10;52.90;;;;;;6237393;28;20055;-71
2021/08/25 12:21:09;;;;;;;2.33;1.63;;;24.10;52.80;;;;;;6244941;28;20108;-73
2021/08/25 12:24:11;;;;;;;;;;;24.10;52.90;;;;;;6246054;28;20117;-72
2021/08/25 12:27:12;;;;;;;1.77;1.23;;;24.10;52.90;;;;;;6242996;28;19995;-71
2021/08/25 12:30:13;;;;;;;3.53;2.03;;;24.10;53.00;;;;;;6244197;28;20029;-70
2021/08/25 12:33:27;;;;;;;2.45;1.75;;;24.10;53.00;;;;;;6245484;28;20168;-71
2021/08/25 12:36:30;;;;;;;2.88;1.70;;;24.10;53.10;;;;;;6244124;28;20021;-70
2021/08/25 12:39:30;;;;;;;2.78;1.60;;;24.10;53.00;;;;;;6245642;28;20083;-72
2021/08/25 12:42:31;;;;;;;2.60;2.08;;;24.10;53.00;;;;;;6245668;28;20490;-72
2021/08/25 12:45:31;;;;;;;3.85;1.92;;;24.10;53.10;;;;;;6244628;28;20045;-72
2021/08/25 12:48:32;;;;;;;3.25;1.80;;;24.10;52.50;;;;;;6245339;28;20474;-71
2021/08/25 12:51:32;;;;;;;6.38;2.17;;;24.10;52.40;;;;;;6243691;28;20033;-70
2021/08/25 12:54:33;;;;;;;4.00;1.98;;;24.10;52.50;;;;;;6242823;28;20108;-72
2021/08/25 12:57:34;;;;;;;4.50;1.95;;;24.10;52.10;;;;;;6243630;28;20045;-71
2021/08/25 13:00:38;;;;;;;3.88;2.05;;;24.10;52.30;;;;;;6244622;28;20034;-71
2021/08/25 13:03:39;;;;;;;4.53;2.13;;;24.10;52.30;;;;;;6243031;28;20036;-72
2021/08/25 13:06:39;;;;;;;3.35;2.08;;;24.10;52.50;;;;;;6244638;28;20025;-72
2021/08/25 13:09:40;;;;;;;4.18;2.10;;;24.10;52.70;;;;;;6244900;28;20048;-72
2021/08/25 13:12:40;;;;;;;3.65;2.17;;;24.10;52.90;;;;;;6243113;28;20081;-72
2021/08/25 13:15:41;;;;;;;3.22;2.28;;;24.10;52.90;;;;;;6235622;28;20497;-71
2021/08/25 13:18:42;;;;;;;2.55;1.60;;;24.10;53.00;;;;;;6243782;28;20035;-72
2021/08/25 13:21:43;;;;;;;3.53;1.90;;;24.10;53.00;;;;;;6244991;28;20024;-70
2021/08/25 13:24:44;;;;;;;2.70;1.63;;;24.10;53.00;;;;;;6243675;28;20417;-72
2021/08/25 13:27:44;;;;;;;2.42;1.63;;;24.10;53.20;;;;;;6244743;28;20028;-72
2021/08/25 13:30:45;;;;;;;2.72;1.63;;;24.10;53.20;;;;;;6244764;28;20558;-72
2021/08/25 13:33:45;;;;;;;1.73;1.48;;;24.10;53.20;;;;;;6245095;28;20081;-70
2021/08/25 13:36:46;;;;;;;2.92;1.65;;;24.10;53.30;;;;;;6245010;28;20059;-72
2021/08/25 13:39:46;;;;;;;2.60;1.80;;;24.10;53.30;;;;;;6244328;28;20048;-70
2021/08/25 13:42:47;;;;;;;3.17;1.80;;;24.10;53.40;;;;;;6244784;28;20025;-68
2021/08/25 13:45:47;;;;;;;2.10;1.60;;;24.10;53.40;;;;;;6243543;28;20045;-72
2021/08/25 13:48:48;;;;;;;3.60;1.83;;;24.10;53.40;;;;;;6244982;28;20018;-70
2021/08/25 13:51:48;;;;;;;4.05;1.60;;;24.10;53.40;;;;;;6244886;28;20490;-70
2021/08/25 13:54:50;;;;;;;1.90;1.35;;;24.10;53.40;;;;;;6230004;28;20391;-69
2021/08/25 13:57:50;;;;;;;1.85;1.48;;;24.10;53.40;;;;;;6219766;28;20373;-69
2021/08/25 14:00:51;;;;;;;2.03;1.45;;;24.10;53.50;;;;;;6241864;28;20552;-68
2021/08/25 14:03:51;;;;;;;2.25;1.70;;;24.10;53.50;;;;;;6242760;28;20604;-69
2021/08/25 14:06:52;;;;;;;2.20;1.80;;;24.10;53.60;;;;;;6242874;28;20072;-68
2021/08/25 14:09:53;;;;;;;3.03;1.55;;;24.10;53.60;;;;;;6243253;28;20482;-68
2021/08/25 14:12:53;;;;;;;2.25;1.45;;;24.10;53.50;;;;;;6243774;28;20021;-68
2021/08/25 14:15:54;;;;;;;2.42;1.50;;;24.10;53.60;;;;;;6243610;28;20033;-68
2021/08/25 14:18:55;;;;;;;2.30;1.50;;;24.10;53.60;;;;;;6242116;28;20029;-68
2021/08/25 14:21:57;;;;;;;2.00;1.40;;;24.10;53.60;;;;;;6242273;28;20025;-68
2021/08/25 14:24:57;;;;;;;1.90;1.38;;;24.10;53.70;;;;;;6243573;28;20037;-68
2021/08/25 14:27:58;;;;;;;2.45;1.60;;;24.10;53.50;;;;;;6242185;28;20021;-68
2021/08/25 14:30:58;;;;;;;2.55;1.80;;;24.10;53.70;;;;;;6243476;28;20026;-68
2021/08/25 14:33:59;;;;;;;2.00;1.50;;;24.10;53.70;;;;;;6243518;28;20030;-68
2021/08/25 14:36:59;;;;;;;1.85;1.52;;;24.10;53.60;;;;;;6243532;28;20036;-68
2021/08/25 14:40:00;;;;;;;2.17;1.80;;;24.10;53.50;;;;;;6242118;28;20025;-68
2021/08/25 14:43:01;;;;;;;2.83;1.85;;;24.10;53.60;;;;;;6243198;28;20105;-68
2021/08/25 14:46:02;;;;;;;2.35;1.65;;;24.10;53.70;;;;;;6243065;28;20026;-68
2021/08/25 14:49:03;;;;;;;2.20;1.58;;;24.10;54.40;;;;;;6241872;28;20113;-68
2021/08/25 14:52:03;;;;;;;2.38;1.45;;;24.10;53.60;;;;;;6246600;28;20032;-68
2021/08/25 14:55:04;;;;;;;1.52;1.42;;;24.10;53.80;;;;;;6242990;28;20089;-68
2021/08/25 14:58:05;;;;;;;2.75;1.50;;;24.10;53.70;;;;;;6222012;28;20046;-68
2021/08/25 15:01:06;;;;;;;2.17;1.55;;;24.10;53.80;;;;;;6233959;28;20049;-69
2021/08/25 15:04:06;;;;;;;1.70;1.38;;;24.10;53.80;;;;;;6246594;28;20079;-69
2021/08/25 15:07:08;;;;;;;1.90;1.38;;;24.10;53.80;;;;;;6247774;28;20034;-68
2021/08/25 15:10:11;;;;;;;2.00;1.60;;;24.10;53.80;;;;;;6247328;28;20029;-68
2021/08/25 15:13:12;;;;;;;2.35;1.50;;;24.10;53.80;;;;;;6246675;28;20053;-68
2021/08/25 15:16:25;;;;;;;2.40;1.67;;;24.00;53.70;;;;;;6247507;28;20029;-68
2021/08/25 15:19:27;;;;;;;1.90;1.50;;;24.10;53.80;;;;;;6247713;28;20108;-68
2021/08/25 15:22:27;;;;;;;1.90;1.40;;;24.10;53.80;;;;;;6246891;28;20025;-68
2021/08/25 15:25:28;;;;;;;1.70;1.20;;;24.00;53.80;;;;;;6246215;28;20084;-68
2021/08/25 15:28:29;;;;;;;1.55;1.20;;;24.10;53.70;;;;;;6246056;28;20040;-68
2021/08/25 15:31:31;;;;;;;2.65;1.17;;;24.10;53.80;;;;;;6245505;28;20036;-68
2021/08/25 15:34:32;;;;;;;2.20;1.65;;;24.10;53.70;;;;;;6245856;28;20029;-68
2021/08/25 15:37:32;;;;;;;1.98;1.45;;;24.10;53.80;;;;;;6246847;28;20032;-68
2021/08/25 15:40:33;;;;;;;2.00;1.48;;;24.10;53.90;;;;;;6245604;28;20087;-68
2021/08/25 15:43:33;;;;;;;1.73;1.25;;;24.10;53.90;;;;;;6246152;28;20477;-71